sensor_id;sensor_type;location;lat;lon;timestamp;P1;durP1;ratioP1;P2;durP2;ratioP2
54539;SDS011;40438;52.992;18.604;2023-02-28T00:00:30;15.77;;;8.35;;
54539;SDS011;40438;52.992;18.604;2023-02-28T00:02:56;18.48;;;9.70;;
54539;SDS011;40438;52.992;18.604;2023-02-28T00:05:22;20.02;;;9.02;;
54539;SDS011;40438;52.992;18.604;2023-02-28T00:07:49;16.95;;;8.48;;
54539;SDS011;40438;52.992;18.604;2023-02-28T00:10:16;16.63;;;8.02;;
54539;SDS011;40438;52.992;18.604;2023-02-28T00:12:44;18.25;;;8.63;;
54539;SDS011;40438;52.992;18.604;2023-02-28T00:15:10;18.90;;;8.18;;
54539;SDS011;40438;52.992;18.604;2023-02-28T00:17:36;15.27;;;8.10;;
54539;SDS011;40438;52.992;18.604;2023-02-28T00:20:03;16.08;;;7.93;;
54539;SDS011;40438;52.992;18.604;2023-02-28T00:22:30;16.77;;;7.95;;
54539;SDS011;40438;52.992;18.604;2023-02-28T00:24:56;16.30;;;8.07;;
54539;SDS011;40438;52.992;18.604;2023-02-28T00:27:22;15.77;;;7.43;;
54539;SDS011;40438;52.992;18.604;2023-02-28T00:29:49;15.05;;;7.55;;
54539;SDS011;40438;52.992;18.604;2023-02-28T00:32:15;14.02;;;7.75;;
54539;SDS011;40438;52.992;18.604;2023-02-28T00:34:41;17.23;;;7.53;;
54539;SDS011;40438;52.992;18.604;2023-02-28T00:37:08;14.77;;;7.53;;
54539;SDS011;40438;52.992;18.604;2023-02-28T00:39:35;12.90;;;7.32;;
54539;SDS011;40438;52.992;18.604;2023-02-28T00:42:02;20.08;;;7.85;;
54539;SDS011;40438;52.992;18.604;2023-02-28T00:44:28;16.23;;;7.85;;
54539;SDS011;40438;52.992;18.604;2023-02-28T00:46:55;19.08;;;8.43;;
54539;SDS011;40438;52.992;18.604;2023-02-28T00:49:23;16.05;;;7.75;;
54539;SDS011;40438;52.992;18.604;2023-02-28T00:51:49;13.32;;;7.75;;
54539;SDS011;40438;52.992;18.604;2023-02-28T00:54:15;14.90;;;8.27;;
54539;SDS011;40438;52.992;18.604;2023-02-28T00:56:41;12.70;;;7.50;;
54539;SDS011;40438;52.992;18.604;2023-02-28T00:59:07;14.88;;;7.80;;
54539;SDS011;40438;52.992;18.604;2023-02-28T01:01:33;15.93;;;7.70;;
54539;SDS011;40438;52.992;18.604;2023-02-28T01:04:01;18.50;;;7.63;;
54539;SDS011;40438;52.992;18.604;2023-02-28T01:06:27;14.45;;;7.03;;
54539;SDS011;40438;52.992;18.604;2023-02-28T01:08:52;18.02;;;7.97;;
54539;SDS011;40438;52.992;18.604;2023-02-28T01:11:18;18.60;;;7.68;;
54539;SDS011;40438;52.992;18.604;2023-02-28T01:13:44;14.02;;;7.78;;
54539;SDS011;40438;52.992;18.604;2023-02-28T01:16:11;11.98;;;6.97;;
54539;SDS011;40438;52.992;18.604;2023-02-28T01:18:37;14.70;;;6.63;;
54539;SDS011;40438;52.992;18.604;2023-02-28T01:21:07;15.85;;;6.95;;
54539;SDS011;40438;52.992;18.604;2023-02-28T01:23:33;13.35;;;6.72;;
54539;SDS011;40438;52.992;18.604;2023-02-28T01:26:03;17.70;;;7.78;;
54539;SDS011;40438;52.992;18.604;2023-02-28T01:28:29;13.95;;;7.00;;
54539;SDS011;40438;52.992;18.604;2023-02-28T01:30:55;16.13;;;7.47;;
54539;SDS011;40438;52.992;18.604;2023-02-28T01:33:21;17.58;;;8.02;;
54539;SDS011;40438;52.992;18.604;2023-02-28T01:35:47;18.75;;;8.13;;
54539;SDS011;40438;52.992;18.604;2023-02-28T01:38:14;15.77;;;7.80;;
54539;SDS011;40438;52.992;18.604;2023-02-28T01:40:40;17.23;;;7.30;;
54539;SDS011;40438;52.992;18.604;2023-02-28T01:43:09;18.92;;;7.53;;
54539;SDS011;40438;52.992;18.604;2023-02-28T01:45:44;15.25;;;7.53;;
54539;SDS011;40438;52.992;18.604;2023-02-28T01:48:10;13.60;;;6.60;;
54539;SDS011;40438;52.992;18.604;2023-02-28T01:50:39;14.00;;;7.10;;
54539;SDS011;40438;52.992;18.604;2023-02-28T01:53:10;15.05;;;7.43;;
54539;SDS011;40438;52.992;18.604;2023-02-28T01:55:44;12.73;;;6.55;;
54539;SDS011;40438;52.992;18.604;2023-02-28T01:58:12;17.45;;;7.13;;
54539;SDS011;40438;52.992;18.604;2023-02-28T02:00:38;20.75;;;7.20;;
54539;SDS011;40438;52.992;18.604;2023-02-28T02:03:06;13.93;;;7.13;;
54539;SDS011;40438;52.992;18.604;2023-02-28T02:05:35;12.93;;;7.32;;
54539;SDS011;40438;52.992;18.604;2023-02-28T02:08:03;13.77;;;6.70;;
54539;SDS011;40438;52.992;18.604;2023-02-28T02:10:34;12.77;;;6.72;;
54539;SDS011;40438;52.992;18.604;2023-02-28T02:13:08;14.13;;;6.95;;
54539;SDS011;40438;52.992;18.604;2023-02-28T02:15:53;14.77;;;6.55;;
54539;SDS011;40438;52.992;18.604;2023-02-28T02:18:27;13.98;;;6.63;;
54539;SDS011;40438;52.992;18.604;2023-02-28T02:21:04;15.20;;;7.68;;
54539;SDS011;40438;52.992;18.604;2023-02-28T02:27:10;13.32;;;6.95;;
54539;SDS011;40438;52.992;18.604;2023-02-28T02:32:46;12.25;;;6.00;;
54539;SDS011;40438;52.992;18.604;2023-02-28T02:35:26;14.45;;;6.75;;
54539;SDS011;40438;52.992;18.604;2023-02-28T02:37:59;13.80;;;6.82;;
54539;SDS011;40438;52.992;18.604;2023-02-28T02:40:29;15.63;;;7.18;;
54539;SDS011;40438;52.992;18.604;2023-02-28T02:43:01;12.88;;;6.00;;
54539;SDS011;40438;52.992;18.604;2023-02-28T02:45:32;13.18;;;6.93;;
54539;SDS011;40438;52.992;18.604;2023-02-28T02:48:01;17.60;;;7.07;;
54539;SDS011;40438;52.992;18.604;2023-02-28T02:50:31;15.52;;;7.03;;
54539;SDS011;40438;52.992;18.604;2023-02-28T02:53:00;16.08;;;7.43;;
54539;SDS011;40438;52.992;18.604;2023-02-28T02:55:29;12.65;;;6.93;;
54539;SDS011;40438;52.992;18.604;2023-02-28T02:57:59;12.27;;;6.72;;
54539;SDS011;40438;52.992;18.604;2023-02-28T03:00:31;11.85;;;6.90;;
54539;SDS011;40438;52.992;18.604;2023-02-28T03:02:59;12.75;;;6.65;;
54539;SDS011;40438;52.992;18.604;2023-02-28T03:05:28;11.38;;;6.47;;
54539;SDS011;40438;52.992;18.604;2023-02-28T03:07:59;14.83;;;6.37;;
54539;SDS011;40438;52.992;18.604;2023-02-28T03:10:29;14.20;;;6.53;;
54539;SDS011;40438;52.992;18.604;2023-02-28T03:13:00;10.90;;;6.85;;
54539;SDS011;40438;52.992;18.604;2023-02-28T03:15:41;12.70;;;6.28;;
54539;SDS011;40438;52.992;18.604;2023-02-28T03:18:21;11.82;;;6.05;;
54539;SDS011;40438;52.992;18.604;2023-02-28T03:20:56;12.52;;;6.50;;
54539;SDS011;40438;52.992;18.604;2023-02-28T03:23:32;13.88;;;7.05;;
54539;SDS011;40438;52.992;18.604;2023-02-28T03:26:07;14.40;;;6.57;;
54539;SDS011;40438;52.992;18.604;2023-02-28T03:28:41;11.10;;;6.70;;
54539;SDS011;40438;52.992;18.604;2023-02-28T03:31:14;13.15;;;7.03;;
54539;SDS011;40438;52.992;18.604;2023-02-28T03:33:44;11.73;;;7.00;;
54539;SDS011;40438;52.992;18.604;2023-02-28T03:36:17;15.32;;;7.28;;
54539;SDS011;40438;52.992;18.604;2023-02-28T03:38:46;13.90;;;6.90;;
54539;SDS011;40438;52.992;18.604;2023-02-28T03:41:17;18.55;;;7.93;;
54539;SDS011;40438;52.992;18.604;2023-02-28T03:43:48;13.88;;;7.72;;
54539;SDS011;40438;52.992;18.604;2023-02-28T03:46:18;14.80;;;7.18;;
54539;SDS011;40438;52.992;18.604;2023-02-28T03:48:49;11.82;;;6.88;;
54539;SDS011;40438;52.992;18.604;2023-02-28T03:51:20;15.50;;;8.02;;
54539;SDS011;40438;52.992;18.604;2023-02-28T03:53:50;14.15;;;6.60;;
54539;SDS011;40438;52.992;18.604;2023-02-28T03:56:18;16.23;;;7.47;;
54539;SDS011;40438;52.992;18.604;2023-02-28T03:58:47;15.98;;;7.13;;
54539;SDS011;40438;52.992;18.604;2023-02-28T04:01:20;12.80;;;6.60;;
54539;SDS011;40438;52.992;18.604;2023-02-28T04:03:49;12.88;;;6.82;;
54539;SDS011;40438;52.992;18.604;2023-02-28T04:06:15;13.68;;;6.90;;
54539;SDS011;40438;52.992;18.604;2023-02-28T04:08:45;12.77;;;6.72;;
54539;SDS011;40438;52.992;18.604;2023-02-28T04:11:14;11.50;;;6.32;;
54539;SDS011;40438;52.992;18.604;2023-02-28T04:13:44;13.60;;;6.35;;
54539;SDS011;40438;52.992;18.604;2023-02-28T04:16:10;13.75;;;6.43;;
54539;SDS011;40438;52.992;18.604;2023-02-28T04:18:36;13.00;;;6.47;;
54539;SDS011;40438;52.992;18.604;2023-02-28T04:21:01;12.48;;;6.40;;
54539;SDS011;40438;52.992;18.604;2023-02-28T04:23:27;11.73;;;6.45;;
54539;SDS011;40438;52.992;18.604;2023-02-28T04:25:55;11.70;;;6.88;;
54539;SDS011;40438;52.992;18.604;2023-02-28T04:28:21;14.13;;;6.55;;
54539;SDS011;40438;52.992;18.604;2023-02-28T04:30:47;13.10;;;6.57;;
54539;SDS011;40438;52.992;18.604;2023-02-28T04:33:13;14.45;;;6.32;;
54539;SDS011;40438;52.992;18.604;2023-02-28T04:35:39;16.02;;;6.72;;
54539;SDS011;40438;52.992;18.604;2023-02-28T04:38:04;12.30;;;6.50;;
54539;SDS011;40438;52.992;18.604;2023-02-28T04:40:30;13.32;;;6.22;;
54539;SDS011;40438;52.992;18.604;2023-02-28T04:42:57;12.63;;;6.50;;
54539;SDS011;40438;52.992;18.604;2023-02-28T04:45:23;12.43;;;6.60;;
54539;SDS011;40438;52.992;18.604;2023-02-28T04:47:49;13.02;;;6.15;;
54539;SDS011;40438;52.992;18.604;2023-02-28T04:50:15;12.43;;;6.88;;
54539;SDS011;40438;52.992;18.604;2023-02-28T04:52:40;12.00;;;6.45;;
54539;SDS011;40438;52.992;18.604;2023-02-28T04:55:06;11.98;;;6.20;;
54539;SDS011;40438;52.992;18.604;2023-02-28T04:57:33;12.73;;;6.95;;
54539;SDS011;40438;52.992;18.604;2023-02-28T05:00:00;12.35;;;6.45;;
54539;SDS011;40438;52.992;18.604;2023-02-28T05:02:26;15.25;;;7.07;;
54539;SDS011;40438;52.992;18.604;2023-02-28T05:04:51;13.32;;;7.30;;
54539;SDS011;40438;52.992;18.604;2023-02-28T05:07:17;11.63;;;6.55;;
54539;SDS011;40438;52.992;18.604;2023-02-28T05:09:43;13.32;;;6.97;;
54539;SDS011;40438;52.992;18.604;2023-02-28T05:12:08;18.65;;;7.05;;
54539;SDS011;40438;52.992;18.604;2023-02-28T05:14:34;15.93;;;7.25;;
54539;SDS011;40438;52.992;18.604;2023-02-28T05:17:02;14.80;;;6.88;;
54539;SDS011;40438;52.992;18.604;2023-02-28T05:19:27;16.38;;;7.30;;
54539;SDS011;40438;52.992;18.604;2023-02-28T05:21:54;13.93;;;6.70;;
54539;SDS011;40438;52.992;18.604;2023-02-28T05:24:20;15.02;;;7.38;;
54539;SDS011;40438;52.992;18.604;2023-02-28T05:26:46;16.02;;;6.80;;
54539;SDS011;40438;52.992;18.604;2023-02-28T05:29:12;12.40;;;6.47;;
54539;SDS011;40438;52.992;18.604;2023-02-28T05:31:37;13.23;;;7.15;;
54539;SDS011;40438;52.992;18.604;2023-02-28T05:34:05;12.88;;;6.78;;
54539;SDS011;40438;52.992;18.604;2023-02-28T05:36:31;14.23;;;7.30;;
54539;SDS011;40438;52.992;18.604;2023-02-28T05:38:57;14.60;;;7.38;;
54539;SDS011;40438;52.992;18.604;2023-02-28T05:41:23;14.98;;;7.55;;
54539;SDS011;40438;52.992;18.604;2023-02-28T05:43:49;13.57;;;7.68;;
54539;SDS011;40438;52.992;18.604;2023-02-28T05:46:14;18.17;;;8.25;;
54539;SDS011;40438;52.992;18.604;2023-02-28T05:48:41;17.85;;;8.20;;
54539;SDS011;40438;52.992;18.604;2023-02-28T05:51:09;16.67;;;8.27;;
54539;SDS011;40438;52.992;18.604;2023-02-28T05:53:35;17.58;;;8.68;;
54539;SDS011;40438;52.992;18.604;2023-02-28T05:56:01;17.10;;;8.57;;
54539;SDS011;40438;52.992;18.604;2023-02-28T05:58:28;18.05;;;8.73;;
54539;SDS011;40438;52.992;18.604;2023-02-28T06:00:54;18.10;;;8.60;;
54539;SDS011;40438;52.992;18.604;2023-02-28T06:03:20;16.98;;;7.97;;
54539;SDS011;40438;52.992;18.604;2023-02-28T06:05:45;17.63;;;8.50;;
54539;SDS011;40438;52.992;18.604;2023-02-28T06:08:13;17.88;;;8.65;;
54539;SDS011;40438;52.992;18.604;2023-02-28T06:10:38;17.30;;;8.25;;
54539;SDS011;40438;52.992;18.604;2023-02-28T06:13:04;19.00;;;9.05;;
54539;SDS011;40438;52.992;18.604;2023-02-28T06:15:31;19.02;;;8.85;;
54539;SDS011;40438;52.992;18.604;2023-02-28T06:17:57;16.27;;;8.43;;
54539;SDS011;40438;52.992;18.604;2023-02-28T06:20:23;22.55;;;9.13;;
54539;SDS011;40438;52.992;18.604;2023-02-28T06:22:50;18.65;;;8.68;;
54539;SDS011;40438;52.992;18.604;2023-02-28T06:25:17;18.65;;;9.57;;
54539;SDS011;40438;52.992;18.604;2023-02-28T06:27:43;18.10;;;8.13;;
54539;SDS011;40438;52.992;18.604;2023-02-28T06:30:09;16.38;;;8.18;;
54539;SDS011;40438;52.992;18.604;2023-02-28T06:32:36;15.93;;;8.40;;
54539;SDS011;40438;52.992;18.604;2023-02-28T06:35:02;18.42;;;8.50;;
54539;SDS011;40438;52.992;18.604;2023-02-28T06:37:28;15.68;;;7.82;;
54539;SDS011;40438;52.992;18.604;2023-02-28T06:39:55;15.57;;;8.80;;
54539;SDS011;40438;52.992;18.604;2023-02-28T06:42:22;18.23;;;8.10;;
54539;SDS011;40438;52.992;18.604;2023-02-28T06:44:49;17.33;;;8.23;;
54539;SDS011;40438;52.992;18.604;2023-02-28T06:47:14;21.95;;;8.60;;
54539;SDS011;40438;52.992;18.604;2023-02-28T06:49:40;17.42;;;8.23;;
54539;SDS011;40438;52.992;18.604;2023-02-28T06:52:06;24.83;;;8.25;;
54539;SDS011;40438;52.992;18.604;2023-02-28T06:54:32;19.70;;;8.10;;
54539;SDS011;40438;52.992;18.604;2023-02-28T06:56:57;13.55;;;7.25;;
54539;SDS011;40438;52.992;18.604;2023-02-28T06:59:25;20.13;;;8.40;;
54539;SDS011;40438;52.992;18.604;2023-02-28T07:01:50;17.23;;;7.88;;
54539;SDS011;40438;52.992;18.604;2023-02-28T07:04:16;20.80;;;8.45;;
54539;SDS011;40438;52.992;18.604;2023-02-28T07:06:42;16.55;;;8.82;;
54539;SDS011;40438;52.992;18.604;2023-02-28T07:09:08;15.93;;;8.40;;
54539;SDS011;40438;52.992;18.604;2023-02-28T07:11:33;15.63;;;8.05;;
54539;SDS011;40438;52.992;18.604;2023-02-28T07:13:59;16.83;;;8.32;;
54539;SDS011;40438;52.992;18.604;2023-02-28T07:16:26;20.00;;;9.18;;
54539;SDS011;40438;52.992;18.604;2023-02-28T07:18:52;16.75;;;7.68;;
54539;SDS011;40438;52.992;18.604;2023-02-28T07:21:18;18.83;;;8.32;;
54539;SDS011;40438;52.992;18.604;2023-02-28T07:23:44;23.42;;;8.93;;
54539;SDS011;40438;52.992;18.604;2023-02-28T07:26:11;22.33;;;8.77;;
54539;SDS011;40438;52.992;18.604;2023-02-28T07:28:38;17.30;;;8.13;;
54539;SDS011;40438;52.992;18.604;2023-02-28T07:31:04;21.35;;;8.27;;
54539;SDS011;40438;52.992;18.604;2023-02-28T07:33:32;15.07;;;7.85;;
54539;SDS011;40438;52.992;18.604;2023-02-28T07:36:02;22.35;;;10.07;;
54539;SDS011;40438;52.992;18.604;2023-02-28T07:38:29;20.17;;;8.82;;
54539;SDS011;40438;52.992;18.604;2023-02-28T07:40:55;19.35;;;9.15;;
54539;SDS011;40438;52.992;18.604;2023-02-28T07:43:20;19.88;;;9.25;;
54539;SDS011;40438;52.992;18.604;2023-02-28T07:45:46;18.25;;;8.35;;
54539;SDS011;40438;52.992;18.604;2023-02-28T07:48:12;23.02;;;9.15;;
54539;SDS011;40438;52.992;18.604;2023-02-28T07:50:39;18.45;;;8.20;;
54539;SDS011;40438;52.992;18.604;2023-02-28T07:53:05;15.85;;;8.35;;
54539;SDS011;40438;52.992;18.604;2023-02-28T07:55:30;17.42;;;8.95;;
54539;SDS011;40438;52.992;18.604;2023-02-28T07:57:56;22.83;;;8.50;;
54539;SDS011;40438;52.992;18.604;2023-02-28T08:00:23;23.23;;;8.48;;
54539;SDS011;40438;52.992;18.604;2023-02-28T08:02:49;17.55;;;8.20;;
54539;SDS011;40438;52.992;18.604;2023-02-28T08:05:14;13.65;;;7.97;;
54539;SDS011;40438;52.992;18.604;2023-02-28T08:07:42;19.77;;;8.13;;
54539;SDS011;40438;52.992;18.604;2023-02-28T08:10:08;21.52;;;8.90;;
54539;SDS011;40438;52.992;18.604;2023-02-28T08:12:34;21.85;;;8.98;;
54539;SDS011;40438;52.992;18.604;2023-02-28T08:15:00;18.30;;;9.13;;
54539;SDS011;40438;52.992;18.604;2023-02-28T08:17:26;18.50;;;8.95;;
54539;SDS011;40438;52.992;18.604;2023-02-28T08:19:52;17.17;;;8.68;;
54539;SDS011;40438;52.992;18.604;2023-02-28T08:22:18;20.92;;;8.80;;
54539;SDS011;40438;52.992;18.604;2023-02-28T08:24:45;16.13;;;8.25;;
54539;SDS011;40438;52.992;18.604;2023-02-28T08:27:11;16.77;;;8.45;;
54539;SDS011;40438;52.992;18.604;2023-02-28T08:29:37;18.60;;;9.18;;
54539;SDS011;40438;52.992;18.604;2023-02-28T08:32:03;21.90;;;9.13;;
54539;SDS011;40438;52.992;18.604;2023-02-28T08:34:29;18.48;;;9.40;;
54539;SDS011;40438;52.992;18.604;2023-02-28T08:36:55;16.95;;;8.85;;
54539;SDS011;40438;52.992;18.604;2023-02-28T08:39:21;16.98;;;8.65;;
54539;SDS011;40438;52.992;18.604;2023-02-28T08:41:48;25.27;;;8.63;;
54539;SDS011;40438;52.992;18.604;2023-02-28T08:44:14;19.95;;;9.10;;
54539;SDS011;40438;52.992;18.604;2023-02-28T08:46:40;23.77;;;9.32;;
54539;SDS011;40438;52.992;18.604;2023-02-28T08:49:05;21.80;;;8.95;;
54539;SDS011;40438;52.992;18.604;2023-02-28T08:51:31;19.83;;;9.27;;
54539;SDS011;40438;52.992;18.604;2023-02-28T08:53:58;20.15;;;9.05;;
54539;SDS011;40438;52.992;18.604;2023-02-28T08:56:25;18.38;;;9.25;;
54539;SDS011;40438;52.992;18.604;2023-02-28T08:58:54;18.30;;;9.35;;
54539;SDS011;40438;52.992;18.604;2023-02-28T09:01:22;16.55;;;8.05;;
54539;SDS011;40438;52.992;18.604;2023-02-28T09:03:49;17.35;;;9.23;;
54539;SDS011;40438;52.992;18.604;2023-02-28T09:06:17;17.77;;;9.00;;
54539;SDS011;40438;52.992;18.604;2023-02-28T09:08:44;22.20;;;8.48;;
54539;SDS011;40438;52.992;18.604;2023-02-28T09:11:10;20.05;;;9.18;;
54539;SDS011;40438;52.992;18.604;2023-02-28T09:13:36;23.33;;;8.52;;
54539;SDS011;40438;52.992;18.604;2023-02-28T09:16:05;16.75;;;9.15;;
54539;SDS011;40438;52.992;18.604;2023-02-28T09:18:33;20.38;;;9.15;;
54539;SDS011;40438;52.992;18.604;2023-02-28T09:20:59;18.80;;;9.52;;
54539;SDS011;40438;52.992;18.604;2023-02-28T09:23:28;19.52;;;8.93;;
54539;SDS011;40438;52.992;18.604;2023-02-28T09:25:54;18.27;;;8.20;;
54539;SDS011;40438;52.992;18.604;2023-02-28T09:28:20;18.15;;;8.48;;
54539;SDS011;40438;52.992;18.604;2023-02-28T09:30:47;19.05;;;8.48;;
54539;SDS011;40438;52.992;18.604;2023-02-28T09:33:16;17.63;;;7.15;;
54539;SDS011;40438;52.992;18.604;2023-02-28T09:35:43;19.08;;;7.82;;
54539;SDS011;40438;52.992;18.604;2023-02-28T09:38:09;15.20;;;7.57;;
54539;SDS011;40438;52.992;18.604;2023-02-28T09:40:35;14.57;;;7.68;;
54539;SDS011;40438;52.992;18.604;2023-02-28T09:43:02;17.77;;;7.95;;
54539;SDS011;40438;52.992;18.604;2023-02-28T09:45:30;16.17;;;7.50;;
54539;SDS011;40438;52.992;18.604;2023-02-28T09:47:59;15.25;;;6.57;;
54539;SDS011;40438;52.992;18.604;2023-02-28T09:50:32;16.25;;;8.60;;
54539;SDS011;40438;52.992;18.604;2023-02-28T09:53:02;17.77;;;8.63;;
54539;SDS011;40438;52.992;18.604;2023-02-28T09:55:37;16.42;;;7.68;;
54539;SDS011;40438;52.992;18.604;2023-02-28T09:58:08;20.05;;;8.40;;
54539;SDS011;40438;52.992;18.604;2023-02-28T10:00:44;15.55;;;8.25;;
54539;SDS011;40438;52.992;18.604;2023-02-28T10:03:25;14.15;;;7.82;;
54539;SDS011;40438;52.992;18.604;2023-02-28T10:05:58;16.08;;;7.43;;
54539;SDS011;40438;52.992;18.604;2023-02-28T10:08:30;17.33;;;7.63;;
54539;SDS011;40438;52.992;18.604;2023-02-28T10:11:00;15.75;;;8.00;;
54539;SDS011;40438;52.992;18.604;2023-02-28T10:13:31;16.38;;;8.25;;
54539;SDS011;40438;52.992;18.604;2023-02-28T10:16:01;16.00;;;8.05;;
54539;SDS011;40438;52.992;18.604;2023-02-28T10:18:30;18.58;;;8.13;;
54539;SDS011;40438;52.992;18.604;2023-02-28T10:21:09;15.68;;;7.45;;
54539;SDS011;40438;52.992;18.604;2023-02-28T10:23:43;16.48;;;8.10;;
54539;SDS011;40438;52.992;18.604;2023-02-28T10:26:11;14.40;;;7.68;;
54539;SDS011;40438;52.992;18.604;2023-02-28T10:28:38;15.20;;;8.10;;
54539;SDS011;40438;52.992;18.604;2023-02-28T10:31:04;14.13;;;7.82;;
54539;SDS011;40438;52.992;18.604;2023-02-28T10:33:31;14.18;;;7.28;;
54539;SDS011;40438;52.992;18.604;2023-02-28T10:35:58;15.52;;;7.32;;
54539;SDS011;40438;52.992;18.604;2023-02-28T10:38:26;13.07;;;7.18;;
54539;SDS011;40438;52.992;18.604;2023-02-28T10:41:02;14.18;;;6.93;;
54539;SDS011;40438;52.992;18.604;2023-02-28T10:43:29;12.98;;;6.85;;
54539;SDS011;40438;52.992;18.604;2023-02-28T10:45:56;14.18;;;6.90;;
54539;SDS011;40438;52.992;18.604;2023-02-28T10:48:34;10.73;;;6.65;;
54539;SDS011;40438;52.992;18.604;2023-02-28T10:51:02;19.17;;;6.93;;
54539;SDS011;40438;52.992;18.604;2023-02-28T10:53:37;13.68;;;6.57;;
54539;SDS011;40438;52.992;18.604;2023-02-28T10:56:14;17.60;;;7.10;;
54539;SDS011;40438;52.992;18.604;2023-02-28T10:58:47;12.60;;;6.53;;
54539;SDS011;40438;52.992;18.604;2023-02-28T11:01:16;16.65;;;6.70;;
54539;SDS011;40438;52.992;18.604;2023-02-28T11:03:43;17.67;;;6.38;;
54539;SDS011;40438;52.992;18.604;2023-02-28T11:06:13;11.23;;;5.07;;
54539;SDS011;40438;52.992;18.604;2023-02-28T11:11:15;11.27;;;4.97;;
54539;SDS011;40438;52.992;18.604;2023-02-28T11:13:42;10.38;;;5.32;;
54539;SDS011;40438;52.992;18.604;2023-02-28T11:16:10;16.92;;;5.05;;
54539;SDS011;40438;52.992;18.604;2023-02-28T11:18:40;14.77;;;5.28;;
54539;SDS011;40438;52.992;18.604;2023-02-28T11:21:08;9.60;;;4.95;;
54539;SDS011;40438;52.992;18.604;2023-02-28T11:23:40;16.65;;;5.30;;
54539;SDS011;40438;52.992;18.604;2023-02-28T11:26:08;14.23;;;4.97;;
54539;SDS011;40438;52.992;18.604;2023-02-28T11:28:34;11.27;;;5.03;;
54539;SDS011;40438;52.992;18.604;2023-02-28T11:31:06;12.90;;;4.85;;
54539;SDS011;40438;52.992;18.604;2023-02-28T11:33:41;8.00;;;4.80;;
54539;SDS011;40438;52.992;18.604;2023-02-28T11:36:10;8.68;;;4.78;;
54539;SDS011;40438;52.992;18.604;2023-02-28T11:38:37;9.18;;;4.72;;
54539;SDS011;40438;52.992;18.604;2023-02-28T11:41:12;7.70;;;4.40;;
54539;SDS011;40438;52.992;18.604;2023-02-28T11:43:53;11.00;;;4.70;;
54539;SDS011;40438;52.992;18.604;2023-02-28T11:46:43;8.18;;;4.35;;
54539;SDS011;40438;52.992;18.604;2023-02-28T11:51:47;8.32;;;4.75;;
54539;SDS011;40438;52.992;18.604;2023-02-28T11:54:23;9.27;;;4.32;;
54539;SDS011;40438;52.992;18.604;2023-02-28T11:56:58;15.82;;;4.60;;
54539;SDS011;40438;52.992;18.604;2023-02-28T11:59:32;9.98;;;4.30;;
54539;SDS011;40438;52.992;18.604;2023-02-28T12:05:17;6.78;;;3.95;;
54539;SDS011;40438;52.992;18.604;2023-02-28T12:07:59;7.55;;;3.95;;
54539;SDS011;40438;52.992;18.604;2023-02-28T12:10:44;9.18;;;3.65;;
54539;SDS011;40438;52.992;18.604;2023-02-28T12:13:26;9.23;;;3.95;;
54539;SDS011;40438;52.992;18.604;2023-02-28T12:19:14;10.43;;;4.07;;
54539;SDS011;40438;52.992;18.604;2023-02-28T12:21:48;11.95;;;4.03;;
54539;SDS011;40438;52.992;18.604;2023-02-28T12:24:39;7.85;;;3.53;;
54539;SDS011;40438;52.992;18.604;2023-02-28T12:27:16;5.35;;;3.83;;
54539;SDS011;40438;52.992;18.604;2023-02-28T12:29:47;11.57;;;3.88;;
54539;SDS011;40438;52.992;18.604;2023-02-28T12:32:18;7.78;;;3.85;;
54539;SDS011;40438;52.992;18.604;2023-02-28T12:34:49;16.48;;;3.90;;
54539;SDS011;40438;52.992;18.604;2023-02-28T12:37:20;5.88;;;3.55;;
54539;SDS011;40438;52.992;18.604;2023-02-28T12:39:51;6.57;;;3.47;;
54539;SDS011;40438;52.992;18.604;2023-02-28T12:42:24;7.72;;;3.40;;
54539;SDS011;40438;52.992;18.604;2023-02-28T12:47:23;5.93;;;3.33;;
54539;SDS011;40438;52.992;18.604;2023-02-28T12:49:49;5.47;;;3.40;;
54539;SDS011;40438;52.992;18.604;2023-02-28T12:52:19;6.80;;;3.40;;
54539;SDS011;40438;52.992;18.604;2023-02-28T12:57:19;9.05;;;3.60;;
54539;SDS011;40438;52.992;18.604;2023-02-28T12:59:53;7.32;;;3.70;;
54539;SDS011;40438;52.992;18.604;2023-02-28T13:02:32;6.50;;;3.55;;
54539;SDS011;40438;52.992;18.604;2023-02-28T13:05:24;7.22;;;3.58;;
54539;SDS011;40438;52.992;18.604;2023-02-28T13:08:04;7.93;;;3.35;;
54539;SDS011;40438;52.992;18.604;2023-02-28T13:13:26;7.95;;;3.60;;
54539;SDS011;40438;52.992;18.604;2023-02-28T13:16:03;7.50;;;3.60;;
54539;SDS011;40438;52.992;18.604;2023-02-28T13:18:31;8.77;;;3.42;;
54539;SDS011;40438;52.992;18.604;2023-02-28T13:20:59;6.43;;;3.50;;
54539;SDS011;40438;52.992;18.604;2023-02-28T13:35:15;5.10;;;3.28;;
54539;SDS011;40438;52.992;18.604;2023-02-28T13:43:59;15.45;;;3.53;;
54539;SDS011;40438;52.992;18.604;2023-02-28T13:46:27;6.57;;;3.20;;
54539;SDS011;40438;52.992;18.604;2023-02-28T13:48:53;8.85;;;3.45;;
54539;SDS011;40438;52.992;18.604;2023-02-28T13:51:39;7.30;;;2.83;;
54539;SDS011;40438;52.992;18.604;2023-02-28T13:54:13;9.05;;;2.80;;
54539;SDS011;40438;52.992;18.604;2023-02-28T13:56:47;8.93;;;3.15;;
54539;SDS011;40438;52.992;18.604;2023-02-28T13:59:23;10.68;;;3.60;;
54539;SDS011;40438;52.992;18.604;2023-02-28T14:01:58;8.20;;;3.55;;
54539;SDS011;40438;52.992;18.604;2023-02-28T14:07:27;7.32;;;3.38;;
54539;SDS011;40438;52.992;18.604;2023-02-28T14:09:57;9.35;;;3.65;;
54539;SDS011;40438;52.992;18.604;2023-02-28T14:15:30;10.35;;;3.65;;
54539;SDS011;40438;52.992;18.604;2023-02-28T14:18:21;8.85;;;3.40;;
54539;SDS011;40438;52.992;18.604;2023-02-28T14:20:51;6.00;;;3.15;;
54539;SDS011;40438;52.992;18.604;2023-02-28T14:23:30;6.65;;;3.30;;
54539;SDS011;40438;52.992;18.604;2023-02-28T14:26:27;6.47;;;3.33;;
54539;SDS011;40438;52.992;18.604;2023-02-28T14:29:12;8.23;;;3.13;;
54539;SDS011;40438;52.992;18.604;2023-02-28T14:31:53;6.18;;;3.10;;
54539;SDS011;40438;52.992;18.604;2023-02-28T14:34:30;8.50;;;2.65;;
54539;SDS011;40438;52.992;18.604;2023-02-28T14:37:02;11.00;;;3.15;;
54539;SDS011;40438;52.992;18.604;2023-02-28T14:39:31;7.13;;;3.25;;
54539;SDS011;40438;52.992;18.604;2023-02-28T14:41:57;5.50;;;2.75;;
54539;SDS011;40438;52.992;18.604;2023-02-28T14:44:24;11.07;;;3.08;;
54539;SDS011;40438;52.992;18.604;2023-02-28T14:46:52;8.73;;;2.90;;
54539;SDS011;40438;52.992;18.604;2023-02-28T14:49:20;6.22;;;3.00;;
54539;SDS011;40438;52.992;18.604;2023-02-28T14:51:49;5.97;;;3.13;;
54539;SDS011;40438;52.992;18.604;2023-02-28T14:54:16;8.25;;;3.63;;
54539;SDS011;40438;52.992;18.604;2023-02-28T14:56:48;6.22;;;2.97;;
54539;SDS011;40438;52.992;18.604;2023-02-28T14:59:23;5.22;;;3.13;;
54539;SDS011;40438;52.992;18.604;2023-02-28T15:01:51;6.78;;;2.97;;
54539;SDS011;40438;52.992;18.604;2023-02-28T15:04:20;6.78;;;2.85;;
54539;SDS011;40438;52.992;18.604;2023-02-28T15:09:33;11.57;;;3.20;;
54539;SDS011;40438;52.992;18.604;2023-02-28T15:12:00;5.60;;;3.10;;
54539;SDS011;40438;52.992;18.604;2023-02-28T15:14:26;5.55;;;2.92;;
54539;SDS011;40438;52.992;18.604;2023-02-28T15:16:53;7.00;;;3.05;;
54539;SDS011;40438;52.992;18.604;2023-02-28T15:19:22;6.90;;;2.40;;
54539;SDS011;40438;52.992;18.604;2023-02-28T15:21:51;10.20;;;3.50;;
54539;SDS011;40438;52.992;18.604;2023-02-28T15:24:21;12.07;;;2.90;;
54539;SDS011;40438;52.992;18.604;2023-02-28T15:26:53;5.60;;;2.60;;